sensor_id;sensor_type;location;lat;lon;timestamp;temperature;humidity
62904;DHT22;49000;50.698;13.322;2024-02-16T00:02:16;7.70;96.40
62904;DHT22;49000;50.698;13.322;2024-02-16T00:04:41;7.70;99.90
62904;DHT22;49000;50.698;13.322;2024-02-16T00:07:07;7.60;97.50
62904;DHT22;49000;50.698;13.322;2024-02-16T00:09:32;7.60;99.90
62904;DHT22;49000;50.698;13.322;2024-02-16T00:11:58;7.60;99.90
62904;DHT22;49000;50.698;13.322;2024-02-16T00:14:24;7.50;99.90
62904;DHT22;49000;50.698;13.322;2024-02-16T00:16:49;7.50;99.90
62904;DHT22;49000;50.698;13.322;2024-02-16T00:19:15;7.60;99.90
62904;DHT22;49000;50.698;13.322;2024-02-16T00:21:40;7.30;99.90
62904;DHT22;49000;50.698;13.322;2024-02-16T00:24:08;7.50;99.90
62904;DHT22;49000;50.698;13.322;2024-02-16T00:26:33;7.30;99.90
62904;DHT22;49000;50.698;13.322;2024-02-16T00:28:58;7.10;99.90
62904;DHT22;49000;50.698;13.322;2024-02-16T00:31:24;7.40;99.90
62904;DHT22;49000;50.698;13.322;2024-02-16T00:33:49;7.40;99.90
62904;DHT22;49000;50.698;13.322;2024-02-16T00:36:15;7.40;99.90
62904;DHT22;49000;50.698;13.322;2024-02-16T00:38:40;7.50;1.00
62904;DHT22;49000;50.698;13.322;2024-02-16T00:41:06;7.20;1.00
62904;DHT22;49000;50.698;13.322;2024-02-16T00:43:32;7.30;1.00
62904;DHT22;49000;50.698;13.322;2024-02-16T00:45:58;7.20;1.00
62904;DHT22;49000;50.698;13.322;2024-02-16T00:48:24;7.10;1.00
62904;DHT22;49000;50.698;13.322;2024-02-16T00:50:49;7.10;1.00
62904;DHT22;49000;50.698;13.322;2024-02-16T00:53:15;7.40;1.00
62904;DHT22;49000;50.698;13.322;2024-02-16T00:55:40;7.40;1.00
62904;DHT22;49000;50.698;13.322;2024-02-16T00:58:07;7.30;1.00
62904;DHT22;49000;50.698;13.322;2024-02-16T01:00:32;7.40;1.00
62904;DHT22;49000;50.698;13.322;2024-02-16T01:02:58;7.50;1.00
62904;DHT22;49000;50.698;13.322;2024-02-16T01:05:23;7.10;99.90
62904;DHT22;49000;50.698;13.322;2024-02-16T01:07:49;7.20;99.90
62904;DHT22;49000;50.698;13.322;2024-02-16T01:10:14;7.60;99.90
62904;DHT22;49000;50.698;13.322;2024-02-16T01:12:40;7.50;99.90
62904;DHT22;49000;50.698;13.322;2024-02-16T01:15:06;7.10;99.90
62904;DHT22;49000;50.698;13.322;2024-02-16T01:17:31;7.60;99.90
62904;DHT22;49000;50.698;13.322;2024-02-16T01:20:00;7.40;99.90
62904;DHT22;49000;50.698;13.322;2024-02-16T01:22:25;7.10;99.90
62904;DHT22;49000;50.698;13.322;2024-02-16T01:24:52;7.40;99.90
62904;DHT22;49000;50.698;13.322;2024-02-16T01:27:17;7.00;99.90
62904;DHT22;49000;50.698;13.322;2024-02-16T01:29:43;7.40;99.90
62904;DHT22;49000;50.698;13.322;2024-02-16T01:32:08;7.00;99.90
62904;DHT22;49000;50.698;13.322;2024-02-16T01:34:34;7.20;99.90
62904;DHT22;49000;50.698;13.322;2024-02-16T01:36:59;6.90;99.90
62904;DHT22;49000;50.698;13.322;2024-02-16T01:39:25;7.00;99.90
62904;DHT22;49000;50.698;13.322;2024-02-16T01:41:50;6.80;99.90
62904;DHT22;49000;50.698;13.322;2024-02-16T01:44:16;6.80;99.90
62904;DHT22;49000;50.698;13.322;2024-02-16T01:46:42;6.90;99.90
62904;DHT22;49000;50.698;13.322;2024-02-16T01:49:08;6.90;99.90
62904;DHT22;49000;50.698;13.322;2024-02-16T01:51:35;7.20;97.50
62904;DHT22;49000;50.698;13.322;2024-02-16T01:54:01;6.90;99.90
62904;DHT22;49000;50.698;13.322;2024-02-16T01:56:27;6.90;94.10
62904;DHT22;49000;50.698;13.322;2024-02-16T01:58:53;7.00;61.60
62904;DHT22;49000;50.698;13.322;2024-02-16T02:01:18;6.70;54.30
62904;DHT22;49000;50.698;13.322;2024-02-16T02:03:44;6.30;61.10
62904;DHT22;49000;50.698;13.322;2024-02-16T02:06:09;6.90;99.90
62904;DHT22;49000;50.698;13.322;2024-02-16T02:08:35;6.60;99.90
62904;DHT22;49000;50.698;13.322;2024-02-16T02:11:00;6.60;99.90
62904;DHT22;49000;50.698;13.322;2024-02-16T02:13:27;6.80;99.90
62904;DHT22;49000;50.698;13.322;2024-02-16T02:15:54;6.70;97.80
62904;DHT22;49000;50.698;13.322;2024-02-16T02:18:20;6.60;94.00
62904;DHT22;49000;50.698;13.322;2024-02-16T02:20:45;6.60;95.00
62904;DHT22;49000;50.698;13.322;2024-02-16T02:23:11;6.50;93.70
62904;DHT22;49000;50.698;13.322;2024-02-16T02:25:36;6.50;96.70
62904;DHT22;49000;50.698;13.322;2024-02-16T02:28:02;6.30;95.60
62904;DHT22;49000;50.698;13.322;2024-02-16T02:30:28;6.40;99.90
62904;DHT22;49000;50.698;13.322;2024-02-16T02:32:53;6.10;99.90
62904;DHT22;49000;50.698;13.322;2024-02-16T02:35:19;6.50;99.90
62904;DHT22;49000;50.698;13.322;2024-02-16T02:37:44;6.30;99.90
62904;DHT22;49000;50.698;13.322;2024-02-16T02:40:10;6.80;99.90
62904;DHT22;49000;50.698;13.322;2024-02-16T02:42:36;6.60;99.90
62904;DHT22;49000;50.698;13.322;2024-02-16T02:45:02;6.50;99.90
62904;DHT22;49000;50.698;13.322;2024-02-16T02:47:28;6.40;99.90
62904;DHT22;49000;50.698;13.322;2024-02-16T02:49:53;6.20;99.90
62904;DHT22;49000;50.698;13.322;2024-02-16T02:52:21;6.30;99.90
62904;DHT22;49000;50.698;13.322;2024-02-16T02:54:47;6.50;99.90
62904;DHT22;49000;50.698;13.322;2024-02-16T02:57:12;6.10;99.90
62904;DHT22;49000;50.698;13.322;2024-02-16T02:59:38;6.50;99.90
62904;DHT22;49000;50.698;13.322;2024-02-16T03:02:04;6.30;99.90
62904;DHT22;49000;50.698;13.322;2024-02-16T03:04:29;6.40;99.90
62904;DHT22;49000;50.698;13.322;2024-02-16T03:06:55;6.00;99.90
62904;DHT22;49000;50.698;13.322;2024-02-16T03:09:20;6.00;99.90
62904;DHT22;49000;50.698;13.322;2024-02-16T03:11:46;6.30;99.90
62904;DHT22;49000;50.698;13.322;2024-02-16T03:14:11;5.90;99.90
62904;DHT22;49000;50.698;13.322;2024-02-16T03:16:37;6.30;99.90
62904;DHT22;49000;50.698;13.322;2024-02-16T03:19:05;6.00;99.90
62904;DHT22;49000;50.698;13.322;2024-02-16T03:21:31;6.50;99.90
62904;DHT22;49000;50.698;13.322;2024-02-16T03:23:57;5.80;99.90
62904;DHT22;49000;50.698;13.322;2024-02-16T03:26:23;5.70;99.90
62904;DHT22;49000;50.698;13.322;2024-02-16T03:28:49;6.20;99.90
62904;DHT22;49000;50.698;13.322;2024-02-16T03:31:24;5.90;99.90
62904;DHT22;49000;50.698;13.322;2024-02-16T03:33:50;6.20;99.90
62904;DHT22;49000;50.698;13.322;2024-02-16T03:36:19;5.90;99.90
62904;DHT22;49000;50.698;13.322;2024-02-16T03:38:46;5.90;99.90
62904;DHT22;49000;50.698;13.322;2024-02-16T03:41:18;5.60;99.90
62904;DHT22;49000;50.698;13.322;2024-02-16T03:43:43;5.70;99.90
62904;DHT22;49000;50.698;13.322;2024-02-16T03:46:09;5.80;99.90
62904;DHT22;49000;50.698;13.322;2024-02-16T03:48:35;6.00;99.90
62904;DHT22;49000;50.698;13.322;2024-02-16T03:51:00;6.00;99.90
62904;DHT22;49000;50.698;13.322;2024-02-16T03:53:28;6.00;99.90
62904;DHT22;49000;50.698;13.322;2024-02-16T03:55:53;5.90;99.90
62904;DHT22;49000;50.698;13.322;2024-02-16T03:58:19;6.10;99.90
62904;DHT22;49000;50.698;13.322;2024-02-16T04:00:44;5.70;99.90
62904;DHT22;49000;50.698;13.322;2024-02-16T04:03:10;5.80;99.90
62904;DHT22;49000;50.698;13.322;2024-02-16T04:05:38;6.10;99.90
62904;DHT22;49000;50.698;13.322;2024-02-16T04:08:04;6.20;99.90
62904;DHT22;49000;50.698;13.322;2024-02-16T04:10:31;6.10;99.90
62904;DHT22;49000;50.698;13.322;2024-02-16T04:12:57;6.00;99.90
62904;DHT22;49000;50.698;13.322;2024-02-16T04:15:22;5.80;99.90
62904;DHT22;49000;50.698;13.322;2024-02-16T04:17:48;5.80;99.90
62904;DHT22;49000;50.698;13.322;2024-02-16T04:20:15;5.80;99.90
62904;DHT22;49000;50.698;13.322;2024-02-16T04:22:41;6.20;99.90
62904;DHT22;49000;50.698;13.322;2024-02-16T04:25:07;6.00;99.90
62904;DHT22;49000;50.698;13.322;2024-02-16T04:27:34;6.30;99.90
62904;DHT22;49000;50.698;13.322;2024-02-16T04:30:00;6.10;99.90
62904;DHT22;49000;50.698;13.322;2024-02-16T04:32:25;6.40;99.90
62904;DHT22;49000;50.698;13.322;2024-02-16T04:34:51;5.70;99.90
62904;DHT22;49000;50.698;13.322;2024-02-16T04:37:17;6.20;99.90
62904;DHT22;49000;50.698;13.322;2024-02-16T04:39:44;6.00;99.90
62904;DHT22;49000;50.698;13.322;2024-02-16T04:42:10;5.90;99.90
62904;DHT22;49000;50.698;13.322;2024-02-16T04:44:39;6.30;99.90
62904;DHT22;49000;50.698;13.322;2024-02-16T04:47:05;6.00;99.90
62904;DHT22;49000;50.698;13.322;2024-02-16T04:49:30;5.90;99.90
62904;DHT22;49000;50.698;13.322;2024-02-16T04:51:56;5.90;99.90
62904;DHT22;49000;50.698;13.322;2024-02-16T04:54:21;5.90;99.90
62904;DHT22;49000;50.698;13.322;2024-02-16T04:56:48;6.10;99.90
62904;DHT22;49000;50.698;13.322;2024-02-16T04:59:14;6.20;99.90
62904;DHT22;49000;50.698;13.322;2024-02-16T05:01:40;5.80;99.90
62904;DHT22;49000;50.698;13.322;2024-02-16T05:04:05;6.30;99.90
62904;DHT22;49000;50.698;13.322;2024-02-16T05:06:32;6.10;99.90
62904;DHT22;49000;50.698;13.322;2024-02-16T05:08:57;5.90;99.90
62904;DHT22;49000;50.698;13.322;2024-02-16T05:11:23;5.90;99.90
62904;DHT22;49000;50.698;13.322;2024-02-16T05:13:50;6.30;99.90
62904;DHT22;49000;50.698;13.322;2024-02-16T05:16:16;6.20;99.90
62904;DHT22;49000;50.698;13.322;2024-02-16T05:18:42;6.60;99.90
62904;DHT22;49000;50.698;13.322;2024-02-16T05:21:07;6.00;99.90
62904;DHT22;49000;50.698;13.322;2024-02-16T05:23:33;6.50;99.90
62904;DHT22;49000;50.698;13.322;2024-02-16T05:25:58;6.50;99.90
62904;DHT22;49000;50.698;13.322;2024-02-16T05:28:24;6.60;99.90
62904;DHT22;49000;50.698;13.322;2024-02-16T05:30:49;6.40;99.90
62904;DHT22;49000;50.698;13.322;2024-02-16T05:33:15;6.50;99.90
62904;DHT22;49000;50.698;13.322;2024-02-16T05:35:40;6.50;99.90
62904;DHT22;49000;50.698;13.322;2024-02-16T05:38:06;6.90;99.90
62904;DHT22;49000;50.698;13.322;2024-02-16T05:40:36;6.80;99.90
62904;DHT22;49000;50.698;13.322;2024-02-16T05:43:21;6.90;99.90
62904;DHT22;49000;50.698;13.322;2024-02-16T05:45:47;6.70;99.90
62904;DHT22;49000;50.698;13.322;2024-02-16T05:48:12;6.40;99.90
62904;DHT22;49000;50.698;13.322;2024-02-16T05:50:38;6.70;99.90
62904;DHT22;49000;50.698;13.322;2024-02-16T05:53:03;7.10;99.90
62904;DHT22;49000;50.698;13.322;2024-02-16T05:55:29;7.00;99.90
62904;DHT22;49000;50.698;13.322;2024-02-16T05:57:54;6.60;99.90
62904;DHT22;49000;50.698;13.322;2024-02-16T06:00:20;6.30;99.90
62904;DHT22;49000;50.698;13.322;2024-02-16T06:02:47;6.80;99.90
62904;DHT22;49000;50.698;13.322;2024-02-16T06:05:12;6.70;99.90
62904;DHT22;49000;50.698;13.322;2024-02-16T06:07:38;6.20;99.90
62904;DHT22;49000;50.698;13.322;2024-02-16T06:10:04;6.30;99.90
62904;DHT22;49000;50.698;13.322;2024-02-16T06:12:33;6.50;99.90
62904;DHT22;49000;50.698;13.322;2024-02-16T06:14:58;6.50;99.90
62904;DHT22;49000;50.698;13.322;2024-02-16T06:17:24;6.60;99.90
62904;DHT22;49000;50.698;13.322;2024-02-16T06:19:50;6.00;99.90
62904;DHT22;49000;50.698;13.322;2024-02-16T06:22:16;6.00;99.90
62904;DHT22;49000;50.698;13.322;2024-02-16T06:24:41;6.60;99.90
62904;DHT22;49000;50.698;13.322;2024-02-16T06:27:07;6.00;99.90
62904;DHT22;49000;50.698;13.322;2024-02-16T06:29:36;6.10;99.90
62904;DHT22;49000;50.698;13.322;2024-02-16T06:32:01;6.40;99.90
62904;DHT22;49000;50.698;13.322;2024-02-16T06:34:30;6.10;99.90
62904;DHT22;49000;50.698;13.322;2024-02-16T06:36:56;6.10;99.90
62904;DHT22;49000;50.698;13.322;2024-02-16T06:39:22;6.30;99.90
62904;DHT22;49000;50.698;13.322;2024-02-16T06:41:47;6.40;99.90
62904;DHT22;49000;50.698;13.322;2024-02-16T06:44:15;6.30;99.90
62904;DHT22;49000;50.698;13.322;2024-02-16T06:46:43;6.20;99.90
62904;DHT22;49000;50.698;13.322;2024-02-16T06:49:11;6.50;99.90
62904;DHT22;49000;50.698;13.322;2024-02-16T06:51:37;6.30;99.90
62904;DHT22;49000;50.698;13.322;2024-02-16T06:54:03;6.20;99.90
62904;DHT22;49000;50.698;13.322;2024-02-16T06:56:29;6.30;99.90
62904;DHT22;49000;50.698;13.322;2024-02-16T06:58:56;6.10;99.90
62904;DHT22;49000;50.698;13.322;2024-02-16T07:01:21;6.50;99.90
62904;DHT22;49000;50.698;13.322;2024-02-16T07:03:47;6.20;99.90
62904;DHT22;49000;50.698;13.322;2024-02-16T07:06:13;6.20;99.90
62904;DHT22;49000;50.698;13.322;2024-02-16T07:08:43;6.30;99.90
62904;DHT22;49000;50.698;13.322;2024-02-16T07:11:09;6.90;99.90
62904;DHT22;49000;50.698;13.322;2024-02-16T07:13:41;6.40;99.90
62904;DHT22;49000;50.698;13.322;2024-02-16T07:16:08;7.00;99.90
62904;DHT22;49000;50.698;13.322;2024-02-16T07:18:34;6.50;99.90
62904;DHT22;49000;50.698;13.322;2024-02-16T07:21:00;7.10;99.90
62904;DHT22;49000;50.698;13.322;2024-02-16T07:23:25;6.90;99.90
62904;DHT22;49000;50.698;13.322;2024-02-16T07:25:51;7.00;99.90
62904;DHT22;49000;50.698;13.322;2024-02-16T07:28:20;7.10;99.90
62904;DHT22;49000;50.698;13.322;2024-02-16T07:30:46;7.70;99.90
62904;DHT22;49000;50.698;13.322;2024-02-16T07:33:11;7.60;99.90
62904;DHT22;49000;50.698;13.322;2024-02-16T07:35:37;7.60;70.40
62904;DHT22;49000;50.698;13.322;2024-02-16T07:38:03;7.40;3.10
62904;DHT22;49000;50.698;13.322;2024-02-16T07:40:29;7.70;1.00
62904;DHT22;49000;50.698;13.322;2024-02-16T07:42:54;7.50;1.00
62904;DHT22;49000;50.698;13.322;2024-02-16T07:45:20;7.70;1.00
62904;DHT22;49000;50.698;13.322;2024-02-16T07:47:46;7.80;1.00
62904;DHT22;49000;50.698;13.322;2024-02-16T07:50:12;7.60;1.00
62904;DHT22;49000;50.698;13.322;2024-02-16T07:52:38;8.00;99.90
62904;DHT22;49000;50.698;13.322;2024-02-16T07:55:08;7.80;99.90
62904;DHT22;49000;50.698;13.322;2024-02-16T07:57:34;8.20;99.90
62904;DHT22;49000;50.698;13.322;2024-02-16T08:00:00;7.80;99.90
62904;DHT22;49000;50.698;13.322;2024-02-16T08:02:25;8.50;99.90
62904;DHT22;49000;50.698;13.322;2024-02-16T08:04:51;8.40;99.90
62904;DHT22;49000;50.698;13.322;2024-02-16T08:07:17;8.10;96.90
62904;DHT22;49000;50.698;13.322;2024-02-16T08:09:48;8.50;99.90
62904;DHT22;49000;50.698;13.322;2024-02-16T08:12:14;8.60;83.50
62904;DHT22;49000;50.698;13.322;2024-02-16T08:14:40;8.60;11.20
62904;DHT22;49000;50.698;13.322;2024-02-16T08:17:07;8.60;1.00
62904;DHT22;49000;50.698;13.322;2024-02-16T08:19:34;8.30;1.00
62904;DHT22;49000;50.698;13.322;2024-02-16T08:22:03;8.50;1.00
62904;DHT22;49000;50.698;13.322;2024-02-16T08:24:32;8.50;4.90
62904;DHT22;49000;50.698;13.322;2024-02-16T08:26:58;8.50;1.00
62904;DHT22;49000;50.698;13.322;2024-02-16T08:29:24;8.60;11.90
62904;DHT22;49000;50.698;13.322;2024-02-16T08:31:50;8.60;23.80
62904;DHT22;49000;50.698;13.322;2024-02-16T08:34:16;8.60;1.00
62904;DHT22;49000;50.698;13.322;2024-02-16T08:36:46;8.70;1.00
62904;DHT22;49000;50.698;13.322;2024-02-16T08:39:12;8.80;1.00
62904;DHT22;49000;50.698;13.322;2024-02-16T08:41:38;8.90;1.00
62904;DHT22;49000;50.698;13.322;2024-02-16T08:44:04;8.90;1.00
62904;DHT22;49000;50.698;13.322;2024-02-16T08:46:30;8.90;1.00
62904;DHT22;49000;50.698;13.322;2024-02-16T08:48:55;9.00;1.00
62904;DHT22;49000;50.698;13.322;2024-02-16T08:51:21;9.00;1.00
62904;DHT22;49000;50.698;13.322;2024-02-16T08:53:47;9.10;1.00
62904;DHT22;49000;50.698;13.322;2024-02-16T08:56:12;9.20;1.00
62904;DHT22;49000;50.698;13.322;2024-02-16T08:58:38;9.20;1.00
62904;DHT22;49000;50.698;13.322;2024-02-16T09:01:04;9.20;1.00
62904;DHT22;49000;50.698;13.322;2024-02-16T09:03:30;9.20;1.00
62904;DHT22;49000;50.698;13.322;2024-02-16T09:06:02;9.20;1.00
62904;DHT22;49000;50.698;13.322;2024-02-16T09:08:27;9.20;1.00
62904;DHT22;49000;50.698;13.322;2024-02-16T09:10:56;9.20;1.00
62904;DHT22;49000;50.698;13.322;2024-02-16T09:13:21;9.20;1.00
62904;DHT22;49000;50.698;13.322;2024-02-16T09:15:47;9.20;1.00
62904;DHT22;49000;50.698;13.322;2024-02-16T09:18:13;9.30;1.00
62904;DHT22;49000;50.698;13.322;2024-02-16T09:20:39;9.20;1.00
62904;DHT22;49000;50.698;13.322;2024-02-16T09:23:04;9.30;1.00
62904;DHT22;49000;50.698;13.322;2024-02-16T09:25:30;9.30;1.00
62904;DHT22;49000;50.698;13.322;2024-02-16T09:27:55;9.30;1.00
62904;DHT22;49000;50.698;13.322;2024-02-16T09:30:21;9.40;1.00
62904;DHT22;49000;50.698;13.322;2024-02-16T09:32:47;9.50;1.00
62904;DHT22;49000;50.698;13.322;2024-02-16T09:35:12;9.60;1.00
62904;DHT22;49000;50.698;13.322;2024-02-16T09:37:39;9.50;1.00
62904;DHT22;49000;50.698;13.322;2024-02-16T09:40:05;9.60;1.00
62904;DHT22;49000;50.698;13.322;2024-02-16T09:42:32;9.70;1.00
62904;DHT22;49000;50.698;13.322;2024-02-16T09:45:00;9.80;1.00
62904;DHT22;49000;50.698;13.322;2024-02-16T09:47:25;9.90;1.00
62904;DHT22;49000;50.698;13.322;2024-02-16T09:49:54;10.00;1.00
62904;DHT22;49000;50.698;13.322;2024-02-16T09:52:19;10.10;1.00
62904;DHT22;49000;50.698;13.322;2024-02-16T09:54:45;10.30;1.00
62904;DHT22;49000;50.698;13.322;2024-02-16T09:57:10;10.50;1.00
62904;DHT22;49000;50.698;13.322;2024-02-16T09:59:36;10.60;99.90
62904;DHT22;49000;50.698;13.322;2024-02-16T10:02:03;10.60;99.90
62904;DHT22;49000;50.698;13.322;2024-02-16T10:04:29;10.70;99.90
62904;DHT22;49000;50.698;13.322;2024-02-16T10:06:54;10.70;99.90
62904;DHT22;49000;50.698;13.322;2024-02-16T10:09:24;10.70;99.90
62904;DHT22;49000;50.698;13.322;2024-02-16T10:11:50;10.80;99.90
62904;DHT22;49000;50.698;13.322;2024-02-16T10:14:16;10.70;99.90
62904;DHT22;49000;50.698;13.322;2024-02-16T10:16:41;10.70;99.90
62904;DHT22;49000;50.698;13.322;2024-02-16T10:19:08;10.70;99.90
62904;DHT22;49000;50.698;13.322;2024-02-16T10:21:36;10.80;99.90
62904;DHT22;49000;50.698;13.322;2024-02-16T10:24:08;10.80;99.90
62904;DHT22;49000;50.698;13.322;2024-02-16T10:26:40;10.70;99.90
62904;DHT22;49000;50.698;13.322;2024-02-16T10:29:10;10.70;99.90
62904;DHT22;49000;50.698;13.322;2024-02-16T10:31:36;10.60;99.90
62904;DHT22;49000;50.698;13.322;2024-02-16T10:34:04;10.70;99.90
62904;DHT22;49000;50.698;13.322;2024-02-16T10:36:36;10.70;99.90
62904;DHT22;49000;50.698;13.322;2024-02-16T10:39:04;10.90;99.90
62904;DHT22;49000;50.698;13.322;2024-02-16T10:41:33;11.20;99.90
62904;DHT22;49000;50.698;13.322;2024-02-16T10:44:01;11.30;99.90
62904;DHT22;49000;50.698;13.322;2024-02-16T10:46:27;11.60;99.90
62904;DHT22;49000;50.698;13.322;2024-02-16T10:48:53;11.50;99.90
62904;DHT22;49000;50.698;13.322;2024-02-16T10:51:43;11.40;99.90
62904;DHT22;49000;50.698;13.322;2024-02-16T10:54:08;11.40;99.90
62904;DHT22;49000;50.698;13.322;2024-02-16T10:56:39;11.30;99.90
62904;DHT22;49000;50.698;13.322;2024-02-16T10:59:08;11.30;99.90
62904;DHT22;49000;50.698;13.322;2024-02-16T11:01:44;11.20;99.90
62904;DHT22;49000;50.698;13.322;2024-02-16T11:04:17;11.10;99.90
62904;DHT22;49000;50.698;13.322;2024-02-16T11:09:27;11.10;99.90
62904;DHT22;49000;50.698;13.322;2024-02-16T11:11:59;11.10;99.90
62904;DHT22;49000;50.698;13.322;2024-02-16T11:14:35;11.20;99.90
62904;DHT22;49000;50.698;13.322;2024-02-16T11:17:02;11.30;99.90
62904;DHT22;49000;50.698;13.322;2024-02-16T11:19:29;11.20;99.90
62904;DHT22;49000;50.698;13.322;2024-02-16T11:21:59;11.20;99.90
62904;DHT22;49000;50.698;13.322;2024-02-16T11:24:32;11.20;99.90
62904;DHT22;49000;50.698;13.322;2024-02-16T11:26:58;11.20;99.90
62904;DHT22;49000;50.698;13.322;2024-02-16T11:29:26;11.20;99.90
62904;DHT22;49000;50.698;13.322;2024-02-16T11:31:56;11.30;99.90
62904;DHT22;49000;50.698;13.322;2024-02-16T11:34:23;11.40;99.90
62904;DHT22;49000;50.698;13.322;2024-02-16T11:36:48;11.60;99.90
62904;DHT22;49000;50.698;13.322;2024-02-16T11:39:14;11.80;99.90
62904;DHT22;49000;50.698;13.322;2024-02-16T11:41:43;12.10;99.90
62904;DHT22;49000;50.698;13.322;2024-02-16T11:44:08;12.20;99.90
62904;DHT22;49000;50.698;13.322;2024-02-16T11:46:34;12.20;99.90
62904;DHT22;49000;50.698;13.322;2024-02-16T11:49:07;12.20;99.90
62904;DHT22;49000;50.698;13.322;2024-02-16T11:51:33;12.00;99.90
62904;DHT22;49000;50.698;13.322;2024-02-16T11:53:59;11.90;99.90
62904;DHT22;49000;50.698;13.322;2024-02-16T11:56:25;11.80;99.90
62904;DHT22;49000;50.698;13.322;2024-02-16T11:58:51;11.80;99.90
62904;DHT22;49000;50.698;13.322;2024-02-16T12:01:17;11.60;99.90
62904;DHT22;49000;50.698;13.322;2024-02-16T12:03:42;11.60;99.90
62904;DHT22;49000;50.698;13.322;2024-02-16T12:06:08;11.60;99.90
62904;DHT22;49000;50.698;13.322;2024-02-16T12:08:34;11.90;99.90
62904;DHT22;49000;50.698;13.322;2024-02-16T12:11:00;12.40;99.90
62904;DHT22;49000;50.698;13.322;2024-02-16T12:13:27;12.40;99.90
62904;DHT22;49000;50.698;13.322;2024-02-16T12:15:53;12.40;99.90
62904;DHT22;49000;50.698;13.322;2024-02-16T12:18:23;12.50;99.90
62904;DHT22;49000;50.698;13.322;2024-02-16T12:21:03;12.50;99.90
62904;DHT22;49000;50.698;13.322;2024-02-16T12:23:29;12.50;99.90
62904;DHT22;49000;50.698;13.322;2024-02-16T12:25:56;12.50;99.90
62904;DHT22;49000;50.698;13.322;2024-02-16T12:28:27;12.40;99.90
62904;DHT22;49000;50.698;13.322;2024-02-16T12:30:56;12.50;99.90
62904;DHT22;49000;50.698;13.322;2024-02-16T12:33:22;12.50;99.90
62904;DHT22;49000;50.698;13.322;2024-02-16T12:35:48;12.60;99.90
62904;DHT22;49000;50.698;13.322;2024-02-16T12:38:14;12.60;99.90
62904;DHT22;49000;50.698;13.322;2024-02-16T12:40:42;12.70;99.90
62904;DHT22;49000;50.698;13.322;2024-02-16T12:43:08;12.80;99.90
62904;DHT22;49000;50.698;13.322;2024-02-16T12:45:36;12.80;99.90
62904;DHT22;49000;50.698;13.322;2024-02-16T12:48:02;12.70;99.90
62904;DHT22;49000;50.698;13.322;2024-02-16T12:50:29;12.70;99.90
62904;DHT22;49000;50.698;13.322;2024-02-16T12:52:54;12.60;99.90
62904;DHT22;49000;50.698;13.322;2024-02-16T12:55:20;12.60;99.90
62904;DHT22;49000;50.698;13.322;2024-02-16T12:57:46;12.60;99.90
62904;DHT22;49000;50.698;13.322;2024-02-16T13:00:11;12.50;99.90
62904;DHT22;49000;50.698;13.322;2024-02-16T13:02:37;12.40;99.90
62904;DHT22;49000;50.698;13.322;2024-02-16T13:05:03;12.40;99.90
62904;DHT22;49000;50.698;13.322;2024-02-16T13:07:28;12.40;99.90
62904;DHT22;49000;50.698;13.322;2024-02-16T13:09:54;12.40;99.90
62904;DHT22;49000;50.698;13.322;2024-02-16T13:12:19;12.40;99.90
62904;DHT22;49000;50.698;13.322;2024-02-16T13:14:48;12.50;99.90
62904;DHT22;49000;50.698;13.322;2024-02-16T13:17:13;12.50;99.90
62904;DHT22;49000;50.698;13.322;2024-02-16T13:19:39;12.50;99.90
62904;DHT22;49000;50.698;13.322;2024-02-16T13:22:04;12.40;99.90
62904;DHT22;49000;50.698;13.322;2024-02-16T13:24:30;12.40;99.90
62904;DHT22;49000;50.698;13.322;2024-02-16T13:26:55;12.50;99.90
62904;DHT22;49000;50.698;13.322;2024-02-16T13:29:21;12.40;99.90
62904;DHT22;49000;50.698;13.322;2024-02-16T13:31:47;12.40;99.90
62904;DHT22;49000;50.698;13.322;2024-02-16T13:34:12;12.40;99.90
62904;DHT22;49000;50.698;13.322;2024-02-16T13:36:40;12.30;99.90
62904;DHT22;49000;50.698;13.322;2024-02-16T13:39:06;12.40;99.90
62904;DHT22;49000;50.698;13.322;2024-02-16T13:41:32;12.50;99.90
62904;DHT22;49000;50.698;13.322;2024-02-16T13:43:58;12.60;99.90
62904;DHT22;49000;50.698;13.322;2024-02-16T13:46:23;12.80;99.90
62904;DHT22;49000;50.698;13.322;2024-02-16T13:48:49;12.50;99.90
62904;DHT22;49000;50.698;13.322;2024-02-16T13:51:14;12.60;99.90
62904;DHT22;49000;50.698;13.322;2024-02-16T13:53:40;12.50;99.90
62904;DHT22;49000;50.698;13.322;2024-02-16T13:56:06;12.40;99.90
62904;DHT22;49000;50.698;13.322;2024-02-16T13:58:32;12.30;99.90
62904;DHT22;49000;50.698;13.322;2024-02-16T14:00:59;12.10;99.90
62904;DHT22;49000;50.698;13.322;2024-02-16T14:03:25;12.20;99.90
62904;DHT22;49000;50.698;13.322;2024-02-16T14:05:51;12.30;99.90
62904;DHT22;49000;50.698;13.322;2024-02-16T14:08:17;12.30;99.90
62904;DHT22;49000;50.698;13.322;2024-02-16T14:10:43;12.40;99.90
62904;DHT22;49000;50.698;13.322;2024-02-16T14:13:08;12.50;99.90
62904;DHT22;49000;50.698;13.322;2024-02-16T14:15:35;12.50;99.90
62904;DHT22;49000;50.698;13.322;2024-02-16T14:18:00;12.40;99.90
62904;DHT22;49000;50.698;13.322;2024-02-16T14:20:26;12.40;99.90
62904;DHT22;49000;50.698;13.322;2024-02-16T14:22:51;12.30;99.90
62904;DHT22;49000;50.698;13.322;2024-02-16T14:25:17;12.30;99.90
62904;DHT22;49000;50.698;13.322;2024-02-16T14:27:44;12.20;99.90
62904;DHT22;49000;50.698;13.322;2024-02-16T14:30:11;12.10;99.90
62904;DHT22;49000;50.698;13.322;2024-02-16T14:32:36;12.00;99.90
62904;DHT22;49000;50.698;13.322;2024-02-16T14:35:02;11.90;99.90
62904;DHT22;49000;50.698;13.322;2024-02-16T14:37:28;11.90;99.90
62904;DHT22;49000;50.698;13.322;2024-02-16T14:39:54;11.90;99.90
62904;DHT22;49000;50.698;13.322;2024-02-16T14:42:23;11.90;99.90
62904;DHT22;49000;50.698;13.322;2024-02-16T14:44:49;11.80;99.90
62904;DHT22;49000;50.698;13.322;2024-02-16T14:47:14;11.80;99.90
62904;DHT22;49000;50.698;13.322;2024-02-16T14:49:40;11.70;99.90
62904;DHT22;49000;50.698;13.322;2024-02-16T14:52:06;11.50;99.90
62904;DHT22;49000;50.698;13.322;2024-02-16T14:54:32;11.40;99.90
62904;DHT22;49000;50.698;13.322;2024-02-16T14:56:57;11.50;99.90
62904;DHT22;49000;50.698;13.322;2024-02-16T14:59:23;11.60;99.90
62904;DHT22;49000;50.698;13.322;2024-02-16T15:01:49;11.60;99.90
62904;DHT22;49000;50.698;13.322;2024-02-16T15:04:17;11.50;99.90
62904;DHT22;49000;50.698;13.322;2024-02-16T15:06:43;11.60;99.90
62904;DHT22;49000;50.698;13.322;2024-02-16T15:09:08;11.70;99.90
62904;DHT22;49000;50.698;13.322;2024-02-16T15:11:35;11.60;99.90
62904;DHT22;49000;50.698;13.322;2024-02-16T15:14:01;11.60;99.90
62904;DHT22;49000;50.698;13.322;2024-02-16T15:16:27;11.50;99.90
62904;DHT22;49000;50.698;13.322;2024-02-16T15:18:52;11.50;99.90
62904;DHT22;49000;50.698;13.322;2024-02-16T15:21:18;11.70;99.90
62904;DHT22;49000;50.698;13.322;2024-02-16T15:23:44;11.80;99.90
62904;DHT22;49000;50.698;13.322;2024-02-16T15:26:11;11.90;99.90